sensor_id;sensor_type;location;lat;lon;timestamp;temperature;humidity
1536;DHT22;761;50.074;8.228;2022-10-28T00:01:28;13.40;1.00
1536;DHT22;761;50.074;8.228;2022-10-28T00:03:59;13.40;1.00
1536;DHT22;761;50.074;8.228;2022-10-28T00:06:30;13.40;1.00
1536;DHT22;761;50.074;8.228;2022-10-28T00:08:59;13.30;1.00
1536;DHT22;761;50.074;8.228;2022-10-28T00:11:31;13.30;1.00
1536;DHT22;761;50.074;8.228;2022-10-28T00:14:03;13.20;1.00
1536;DHT22;761;50.074;8.228;2022-10-28T00:16:33;13.30;1.00
1536;DHT22;761;50.074;8.228;2022-10-28T00:19:05;13.30;1.00
1536;DHT22;761;50.074;8.228;2022-10-28T00:21:35;13.40;1.00
1536;DHT22;761;50.074;8.228;2022-10-28T00:24:04;13.40;1.00
1536;DHT22;761;50.074;8.228;2022-10-28T00:26:34;13.40;1.00
1536;DHT22;761;50.074;8.228;2022-10-28T00:29:06;13.30;1.00
1536;DHT22;761;50.074;8.228;2022-10-28T00:31:35;13.30;1.00
1536;DHT22;761;50.074;8.228;2022-10-28T00:34:05;13.30;1.00
1536;DHT22;761;50.074;8.228;2022-10-28T00:36:36;13.20;1.00
1536;DHT22;761;50.074;8.228;2022-10-28T00:39:09;13.10;1.00
1536;DHT22;761;50.074;8.228;2022-10-28T00:41:40;13.20;1.00
1536;DHT22;761;50.074;8.228;2022-10-28T00:47:21;13.40;1.00
1536;DHT22;761;50.074;8.228;2022-10-28T00:49:54;13.30;1.00
1536;DHT22;761;50.074;8.228;2022-10-28T00:52:25;13.30;1.00
1536;DHT22;761;50.074;8.228;2022-10-28T00:54:55;13.10;1.00
1536;DHT22;761;50.074;8.228;2022-10-28T00:57:30;13.50;1.00
1536;DHT22;761;50.074;8.228;2022-10-28T01:00:04;13.30;1.00
1536;DHT22;761;50.074;8.228;2022-10-28T01:02:40;13.70;1.00
1536;DHT22;761;50.074;8.228;2022-10-28T01:05:10;13.30;1.00
1536;DHT22;761;50.074;8.228;2022-10-28T01:07:39;13.40;1.00
1536;DHT22;761;50.074;8.228;2022-10-28T01:10:08;13.40;1.00
1536;DHT22;761;50.074;8.228;2022-10-28T01:12:49;13.40;1.00
1536;DHT22;761;50.074;8.228;2022-10-28T01:15:27;13.50;1.00
1536;DHT22;761;50.074;8.228;2022-10-28T01:18:02;13.60;1.00
1536;DHT22;761;50.074;8.228;2022-10-28T01:23:32;13.60;1.00
1536;DHT22;761;50.074;8.228;2022-10-28T01:26:28;13.60;1.00
1536;DHT22;761;50.074;8.228;2022-10-28T01:32:01;13.50;1.00
1536;DHT22;761;50.074;8.228;2022-10-28T01:34:41;13.60;1.00
1536;DHT22;761;50.074;8.228;2022-10-28T01:37:18;13.60;1.00
1536;DHT22;761;50.074;8.228;2022-10-28T01:39:53;13.70;1.00
1536;DHT22;761;50.074;8.228;2022-10-28T01:42:29;13.70;1.00
1536;DHT22;761;50.074;8.228;2022-10-28T01:45:02;13.80;1.00
1536;DHT22;761;50.074;8.228;2022-10-28T01:47:37;13.80;1.00
1536;DHT22;761;50.074;8.228;2022-10-28T01:50:10;13.90;1.00
1536;DHT22;761;50.074;8.228;2022-10-28T01:52:41;13.90;1.00
1536;DHT22;761;50.074;8.228;2022-10-28T01:55:14;13.80;1.00
1536;DHT22;761;50.074;8.228;2022-10-28T01:57:46;13.80;1.00
1536;DHT22;761;50.074;8.228;2022-10-28T02:02:47;13.70;1.00
1536;DHT22;761;50.074;8.228;2022-10-28T02:05:37;13.70;1.00
1536;DHT22;761;50.074;8.228;2022-10-28T02:08:18;13.80;1.00
1536;DHT22;761;50.074;8.228;2022-10-28T02:10:59;13.90;1.00
1536;DHT22;761;50.074;8.228;2022-10-28T02:13:38;13.80;1.00
1536;DHT22;761;50.074;8.228;2022-10-28T02:16:17;13.80;1.00
1536;DHT22;761;50.074;8.228;2022-10-28T02:18:55;13.70;1.00
1536;DHT22;761;50.074;8.228;2022-10-28T02:21:33;13.80;1.00
1536;DHT22;761;50.074;8.228;2022-10-28T02:24:16;13.80;1.00
1536;DHT22;761;50.074;8.228;2022-10-28T02:26:51;13.90;1.00
1536;DHT22;761;50.074;8.228;2022-10-28T02:29:27;13.90;1.00
1536;DHT22;761;50.074;8.228;2022-10-28T02:32:00;13.90;1.00
1536;DHT22;761;50.074;8.228;2022-10-28T02:34:34;13.90;1.00
1536;DHT22;761;50.074;8.228;2022-10-28T02:37:09;13.90;1.00
1536;DHT22;761;50.074;8.228;2022-10-28T02:39:40;13.90;1.00
1536;DHT22;761;50.074;8.228;2022-10-28T02:42:12;13.80;1.00
1536;DHT22;761;50.074;8.228;2022-10-28T02:44:47;13.80;1.00
1536;DHT22;761;50.074;8.228;2022-10-28T02:47:21;13.90;1.00
1536;DHT22;761;50.074;8.228;2022-10-28T02:49:55;13.90;1.00
1536;DHT22;761;50.074;8.228;2022-10-28T02:52:27;13.80;1.00
1536;DHT22;761;50.074;8.228;2022-10-28T02:54:58;13.80;1.00
1536;DHT22;761;50.074;8.228;2022-10-28T02:57:29;13.80;1.00
1536;DHT22;761;50.074;8.228;2022-10-28T03:00:01;13.80;1.00
1536;DHT22;761;50.074;8.228;2022-10-28T03:02:32;13.80;1.00
1536;DHT22;761;50.074;8.228;2022-10-28T03:05:01;13.80;1.00
1536;DHT22;761;50.074;8.228;2022-10-28T03:07:30;13.80;1.00
1536;DHT22;761;50.074;8.228;2022-10-28T03:09:58;13.80;1.00
1536;DHT22;761;50.074;8.228;2022-10-28T03:12:26;13.90;1.00
1536;DHT22;761;50.074;8.228;2022-10-28T03:14:54;13.90;1.00
1536;DHT22;761;50.074;8.228;2022-10-28T03:17:22;14.10;1.00
1536;DHT22;761;50.074;8.228;2022-10-28T03:19:50;13.90;1.00
1536;DHT22;761;50.074;8.228;2022-10-28T03:22:19;14.30;1.00
1536;DHT22;761;50.074;8.228;2022-10-28T03:24:47;14.20;1.00
1536;DHT22;761;50.074;8.228;2022-10-28T03:27:15;14.00;1.00
1536;DHT22;761;50.074;8.228;2022-10-28T03:29:43;13.90;1.00
1536;DHT22;761;50.074;8.228;2022-10-28T03:32:12;14.20;1.00
1536;DHT22;761;50.074;8.228;2022-10-28T03:34:40;14.30;1.00
1536;DHT22;761;50.074;8.228;2022-10-28T03:37:09;14.30;1.00
1536;DHT22;761;50.074;8.228;2022-10-28T03:39:38;14.60;1.00
1536;DHT22;761;50.074;8.228;2022-10-28T03:42:06;14.20;1.00
1536;DHT22;761;50.074;8.228;2022-10-28T03:44:34;14.20;1.00
1536;DHT22;761;50.074;8.228;2022-10-28T03:47:03;14.30;1.00
1536;DHT22;761;50.074;8.228;2022-10-28T03:49:31;14.30;1.00
1536;DHT22;761;50.074;8.228;2022-10-28T03:51:59;14.30;1.00
1536;DHT22;761;50.074;8.228;2022-10-28T03:54:27;14.40;1.00
1536;DHT22;761;50.074;8.228;2022-10-28T03:56:58;14.40;1.00
1536;DHT22;761;50.074;8.228;2022-10-28T03:59:26;14.40;1.00
1536;DHT22;761;50.074;8.228;2022-10-28T04:01:54;14.40;1.00
1536;DHT22;761;50.074;8.228;2022-10-28T04:04:23;14.50;1.00
1536;DHT22;761;50.074;8.228;2022-10-28T04:06:56;14.50;1.00
1536;DHT22;761;50.074;8.228;2022-10-28T04:09:24;14.40;1.00
1536;DHT22;761;50.074;8.228;2022-10-28T04:11:52;14.30;1.00
1536;DHT22;761;50.074;8.228;2022-10-28T04:14:22;14.30;1.00
1536;DHT22;761;50.074;8.228;2022-10-28T04:16:50;14.30;1.00
1536;DHT22;761;50.074;8.228;2022-10-28T04:19:18;14.20;1.00
1536;DHT22;761;50.074;8.228;2022-10-28T04:21:46;14.20;1.00
1536;DHT22;761;50.074;8.228;2022-10-28T04:24:14;14.20;1.00
1536;DHT22;761;50.074;8.228;2022-10-28T04:26:43;14.20;1.00
1536;DHT22;761;50.074;8.228;2022-10-28T04:29:11;14.20;1.00
1536;DHT22;761;50.074;8.228;2022-10-28T04:31:40;14.20;1.00
1536;DHT22;761;50.074;8.228;2022-10-28T04:34:08;14.20;1.00
1536;DHT22;761;50.074;8.228;2022-10-28T04:36:36;14.10;1.00
1536;DHT22;761;50.074;8.228;2022-10-28T04:39:04;14.10;1.00
1536;DHT22;761;50.074;8.228;2022-10-28T04:41:32;14.20;1.00
1536;DHT22;761;50.074;8.228;2022-10-28T04:44:03;14.20;1.00
1536;DHT22;761;50.074;8.228;2022-10-28T04:46:31;14.20;1.00
1536;DHT22;761;50.074;8.228;2022-10-28T04:49:01;14.10;1.00
1536;DHT22;761;50.074;8.228;2022-10-28T04:51:29;14.10;1.00
1536;DHT22;761;50.074;8.228;2022-10-28T04:53:58;14.10;1.00
1536;DHT22;761;50.074;8.228;2022-10-28T04:56:26;14.00;1.00
1536;DHT22;761;50.074;8.228;2022-10-28T04:58:54;14.10;1.00
1536;DHT22;761;50.074;8.228;2022-10-28T05:01:22;14.10;1.00
1536;DHT22;761;50.074;8.228;2022-10-28T05:03:51;14.10;1.00
1536;DHT22;761;50.074;8.228;2022-10-28T05:06:20;14.10;1.00
1536;DHT22;761;50.074;8.228;2022-10-28T05:08:48;13.90;1.00
1536;DHT22;761;50.074;8.228;2022-10-28T05:11:16;14.10;1.00
1536;DHT22;761;50.074;8.228;2022-10-28T05:13:44;14.20;1.00
1536;DHT22;761;50.074;8.228;2022-10-28T05:16:12;14.20;1.00
1536;DHT22;761;50.074;8.228;2022-10-28T05:18:40;14.20;1.00
1536;DHT22;761;50.074;8.228;2022-10-28T05:21:13;14.30;1.00
1536;DHT22;761;50.074;8.228;2022-10-28T05:23:43;14.10;1.00
1536;DHT22;761;50.074;8.228;2022-10-28T05:26:13;14.00;1.00
1536;DHT22;761;50.074;8.228;2022-10-28T05:28:41;13.90;1.00
1536;DHT22;761;50.074;8.228;2022-10-28T05:31:12;13.70;1.00
1536;DHT22;761;50.074;8.228;2022-10-28T05:33:40;13.90;1.00
1536;DHT22;761;50.074;8.228;2022-10-28T05:36:08;13.80;1.00
1536;DHT22;761;50.074;8.228;2022-10-28T05:38:36;13.80;1.00
1536;DHT22;761;50.074;8.228;2022-10-28T05:41:07;13.80;1.00
1536;DHT22;761;50.074;8.228;2022-10-28T05:46:03;13.90;1.00
1536;DHT22;761;50.074;8.228;2022-10-28T05:51:00;13.90;1.00
1536;DHT22;761;50.074;8.228;2022-10-28T05:53:28;13.90;1.00
1536;DHT22;761;50.074;8.228;2022-10-28T05:55:56;14.00;1.00
1536;DHT22;761;50.074;8.228;2022-10-28T05:58:25;13.70;1.00
1536;DHT22;761;50.074;8.228;2022-10-28T06:00:53;13.70;1.00
1536;DHT22;761;50.074;8.228;2022-10-28T06:03:22;13.50;1.00
1536;DHT22;761;50.074;8.228;2022-10-28T06:05:57;13.50;1.00
1536;DHT22;761;50.074;8.228;2022-10-28T06:08:26;13.50;1.00
1536;DHT22;761;50.074;8.228;2022-10-28T06:10:54;13.50;1.00
1536;DHT22;761;50.074;8.228;2022-10-28T06:13:25;13.50;1.00
1536;DHT22;761;50.074;8.228;2022-10-28T06:15:54;13.50;1.00
1536;DHT22;761;50.074;8.228;2022-10-28T06:18:24;13.50;1.00
1536;DHT22;761;50.074;8.228;2022-10-28T06:20:54;13.60;1.00
1536;DHT22;761;50.074;8.228;2022-10-28T06:23:23;13.60;1.00
1536;DHT22;761;50.074;8.228;2022-10-28T06:25:55;13.60;1.00
1536;DHT22;761;50.074;8.228;2022-10-28T06:28:26;13.50;1.00
1536;DHT22;761;50.074;8.228;2022-10-28T06:31:00;13.50;1.00
1536;DHT22;761;50.074;8.228;2022-10-28T06:33:29;13.50;1.00
1536;DHT22;761;50.074;8.228;2022-10-28T06:35:57;13.60;1.00
1536;DHT22;761;50.074;8.228;2022-10-28T06:43:41;13.80;1.00
1536;DHT22;761;50.074;8.228;2022-10-28T06:48:41;13.60;1.00
1536;DHT22;761;50.074;8.228;2022-10-28T06:51:10;13.60;1.00
1536;DHT22;761;50.074;8.228;2022-10-28T06:53:38;13.50;1.00
1536;DHT22;761;50.074;8.228;2022-10-28T06:56:08;13.50;1.00
1536;DHT22;761;50.074;8.228;2022-10-28T06:58:36;13.60;1.00
1536;DHT22;761;50.074;8.228;2022-10-28T07:01:07;13.60;1.00
1536;DHT22;761;50.074;8.228;2022-10-28T07:03:38;13.60;1.00
1536;DHT22;761;50.074;8.228;2022-10-28T07:06:12;13.50;1.00
1536;DHT22;761;50.074;8.228;2022-10-28T07:08:51;13.50;1.00
1536;DHT22;761;50.074;8.228;2022-10-28T07:11:22;13.50;1.00
1536;DHT22;761;50.074;8.228;2022-10-28T07:13:50;13.50;1.00
1536;DHT22;761;50.074;8.228;2022-10-28T07:16:20;13.50;1.00
1536;DHT22;761;50.074;8.228;2022-10-28T07:18:49;13.70;1.00
1536;DHT22;761;50.074;8.228;2022-10-28T07:21:17;13.80;1.00
1536;DHT22;761;50.074;8.228;2022-10-28T07:23:54;13.80;1.00
1536;DHT22;761;50.074;8.228;2022-10-28T07:26:27;13.80;1.00
1536;DHT22;761;50.074;8.228;2022-10-28T07:29:08;14.00;1.00
1536;DHT22;761;50.074;8.228;2022-10-28T07:31:42;13.90;1.00
1536;DHT22;761;50.074;8.228;2022-10-28T07:36:51;14.20;1.00
1536;DHT22;761;50.074;8.228;2022-10-28T07:42:04;14.30;1.00
1536;DHT22;761;50.074;8.228;2022-10-28T07:44:37;14.40;1.00
1536;DHT22;761;50.074;8.228;2022-10-28T07:49:40;14.60;1.00
1536;DHT22;761;50.074;8.228;2022-10-28T07:52:10;14.60;1.00
1536;DHT22;761;50.074;8.228;2022-10-28T07:54:39;14.60;1.00
1536;DHT22;761;50.074;8.228;2022-10-28T07:57:09;14.60;1.00
1536;DHT22;761;50.074;8.228;2022-10-28T07:59:39;14.80;1.00
1536;DHT22;761;50.074;8.228;2022-10-28T08:02:15;14.80;1.00
1536;DHT22;761;50.074;8.228;2022-10-28T08:04:45;15.00;1.00
1536;DHT22;761;50.074;8.228;2022-10-28T08:07:17;15.00;1.00
1536;DHT22;761;50.074;8.228;2022-10-28T08:09:48;15.10;1.00
1536;DHT22;761;50.074;8.228;2022-10-28T08:12:19;15.20;1.00
1536;DHT22;761;50.074;8.228;2022-10-28T08:14:49;15.30;1.00
1536;DHT22;761;50.074;8.228;2022-10-28T08:17:21;15.30;1.00
1536;DHT22;761;50.074;8.228;2022-10-28T08:19:51;15.30;1.00
1536;DHT22;761;50.074;8.228;2022-10-28T08:22:22;15.40;1.00
1536;DHT22;761;50.074;8.228;2022-10-28T08:24:51;15.40;1.00
1536;DHT22;761;50.074;8.228;2022-10-28T08:27:22;15.30;1.00
1536;DHT22;761;50.074;8.228;2022-10-28T08:29:52;15.30;1.00
1536;DHT22;761;50.074;8.228;2022-10-28T08:32:22;15.30;1.00
1536;DHT22;761;50.074;8.228;2022-10-28T08:34:51;15.20;1.00
1536;DHT22;761;50.074;8.228;2022-10-28T08:37:21;15.20;1.00
1536;DHT22;761;50.074;8.228;2022-10-28T08:39:50;15.30;1.00
1536;DHT22;761;50.074;8.228;2022-10-28T08:42:36;15.30;1.00
1536;DHT22;761;50.074;8.228;2022-10-28T08:45:19;15.30;1.00
1536;DHT22;761;50.074;8.228;2022-10-28T08:48:08;15.30;1.00
1536;DHT22;761;50.074;8.228;2022-10-28T08:50:45;15.40;1.00
1536;DHT22;761;50.074;8.228;2022-10-28T08:53:18;15.50;1.00
1536;DHT22;761;50.074;8.228;2022-10-28T08:55:47;15.70;1.00
1536;DHT22;761;50.074;8.228;2022-10-28T08:58:24;15.80;1.00
1536;DHT22;761;50.074;8.228;2022-10-28T09:00:54;16.00;1.00
1536;DHT22;761;50.074;8.228;2022-10-28T09:03:25;16.10;1.00
1536;DHT22;761;50.074;8.228;2022-10-28T09:05:59;16.30;1.00
1536;DHT22;761;50.074;8.228;2022-10-28T09:08:33;16.50;1.00
1536;DHT22;761;50.074;8.228;2022-10-28T09:11:24;16.70;1.00
1536;DHT22;761;50.074;8.228;2022-10-28T09:14:07;16.90;1.00
1536;DHT22;761;50.074;8.228;2022-10-28T09:16:44;17.20;1.00
1536;DHT22;761;50.074;8.228;2022-10-28T09:19:23;17.30;1.00
1536;DHT22;761;50.074;8.228;2022-10-28T09:22:05;17.30;1.00
1536;DHT22;761;50.074;8.228;2022-10-28T09:24:42;17.40;1.00
1536;DHT22;761;50.074;8.228;2022-10-28T09:27:30;17.50;1.00
1536;DHT22;761;50.074;8.228;2022-10-28T09:30:17;17.50;1.00
1536;DHT22;761;50.074;8.228;2022-10-28T09:32:55;17.50;1.00
1536;DHT22;761;50.074;8.228;2022-10-28T09:35:31;17.30;1.00
1536;DHT22;761;50.074;8.228;2022-10-28T09:38:09;17.30;1.00
1536;DHT22;761;50.074;8.228;2022-10-28T09:40:41;17.40;1.00
1536;DHT22;761;50.074;8.228;2022-10-28T09:43:19;17.30;1.00
1536;DHT22;761;50.074;8.228;2022-10-28T09:45:52;17.40;1.00
1536;DHT22;761;50.074;8.228;2022-10-28T09:48:23;17.50;1.00
1536;DHT22;761;50.074;8.228;2022-10-28T09:50:55;17.60;1.00
1536;DHT22;761;50.074;8.228;2022-10-28T09:53:33;17.60;1.00
1536;DHT22;761;50.074;8.228;2022-10-28T09:56:03;17.60;1.00
1536;DHT22;761;50.074;8.228;2022-10-28T09:58:33;17.60;1.00
1536;DHT22;761;50.074;8.228;2022-10-28T10:01:02;17.60;1.00
1536;DHT22;761;50.074;8.228;2022-10-28T10:03:31;17.70;1.00
1536;DHT22;761;50.074;8.228;2022-10-28T10:06:08;17.70;1.00
1536;DHT22;761;50.074;8.228;2022-10-28T10:08:39;17.80;1.00
1536;DHT22;761;50.074;8.228;2022-10-28T10:11:23;17.80;1.00
1536;DHT22;761;50.074;8.228;2022-10-28T10:13:56;18.00;1.00
1536;DHT22;761;50.074;8.228;2022-10-28T10:16:35;18.00;1.00
1536;DHT22;761;50.074;8.228;2022-10-28T10:19:06;18.30;1.00
1536;DHT22;761;50.074;8.228;2022-10-28T10:21:43;18.30;1.00
1536;DHT22;761;50.074;8.228;2022-10-28T10:24:34;18.20;1.00
1536;DHT22;761;50.074;8.228;2022-10-28T10:27:13;18.20;1.00
1536;DHT22;761;50.074;8.228;2022-10-28T10:29:46;18.20;1.00
1536;DHT22;761;50.074;8.228;2022-10-28T10:32:17;18.40;1.00
1536;DHT22;761;50.074;8.228;2022-10-28T10:34:57;18.60;1.00
1536;DHT22;761;50.074;8.228;2022-10-28T10:37:30;18.80;1.00
1536;DHT22;761;50.074;8.228;2022-10-28T10:40:11;18.90;1.00
1536;DHT22;761;50.074;8.228;2022-10-28T10:42:46;19.00;1.00
1536;DHT22;761;50.074;8.228;2022-10-28T10:45:35;19.10;1.00
1536;DHT22;761;50.074;8.228;2022-10-28T10:48:10;19.30;1.00
1536;DHT22;761;50.074;8.228;2022-10-28T10:50:42;18.80;1.00
1536;DHT22;761;50.074;8.228;2022-10-28T10:53:19;18.70;1.00
1536;DHT22;761;50.074;8.228;2022-10-28T10:55:52;18.60;1.00
1536;DHT22;761;50.074;8.228;2022-10-28T10:58:24;18.90;1.00
1536;DHT22;761;50.074;8.228;2022-10-28T11:00:56;19.30;1.00
1536;DHT22;761;50.074;8.228;2022-10-28T11:03:34;19.40;1.00
1536;DHT22;761;50.074;8.228;2022-10-28T11:06:06;19.40;1.00
1536;DHT22;761;50.074;8.228;2022-10-28T11:08:59;19.60;1.00
1536;DHT22;761;50.074;8.228;2022-10-28T11:11:32;19.90;1.00
1536;DHT22;761;50.074;8.228;2022-10-28T11:14:06;19.70;1.00
1536;DHT22;761;50.074;8.228;2022-10-28T11:16:48;19.70;1.00
1536;DHT22;761;50.074;8.228;2022-10-28T11:19:20;19.80;1.00
1536;DHT22;761;50.074;8.228;2022-10-28T11:22:15;19.90;1.00
1536;DHT22;761;50.074;8.228;2022-10-28T11:25:16;19.80;1.00
1536;DHT22;761;50.074;8.228;2022-10-28T11:27:54;20.00;1.00
1536;DHT22;761;50.074;8.228;2022-10-28T11:30:39;20.00;1.00
1536;DHT22;761;50.074;8.228;2022-10-28T11:33:15;20.00;1.00
1536;DHT22;761;50.074;8.228;2022-10-28T11:36:12;19.70;1.00
1536;DHT22;761;50.074;8.228;2022-10-28T11:38:59;19.70;1.00
1536;DHT22;761;50.074;8.228;2022-10-28T11:41:49;19.80;1.00
1536;DHT22;761;50.074;8.228;2022-10-28T11:44:31;20.00;1.00
1536;DHT22;761;50.074;8.228;2022-10-28T11:47:20;20.10;1.00
1536;DHT22;761;50.074;8.228;2022-10-28T11:50:21;20.20;1.00
1536;DHT22;761;50.074;8.228;2022-10-28T11:56:20;20.30;1.00
1536;DHT22;761;50.074;8.228;2022-10-28T12:01:47;20.50;1.00
1536;DHT22;761;50.074;8.228;2022-10-28T12:04:42;20.60;1.00
1536;DHT22;761;50.074;8.228;2022-10-28T12:07:33;20.80;1.00
1536;DHT22;761;50.074;8.228;2022-10-28T12:10:20;20.70;1.00
1536;DHT22;761;50.074;8.228;2022-10-28T12:12:57;20.50;1.00
1536;DHT22;761;50.074;8.228;2022-10-28T12:15:34;20.60;1.00
1536;DHT22;761;50.074;8.228;2022-10-28T12:18:10;20.50;1.00
1536;DHT22;761;50.074;8.228;2022-10-28T12:20:48;20.50;1.00
1536;DHT22;761;50.074;8.228;2022-10-28T12:23:23;20.50;1.00
1536;DHT22;761;50.074;8.228;2022-10-28T12:25:54;20.50;1.00
1536;DHT22;761;50.074;8.228;2022-10-28T12:28:27;20.50;1.00
1536;DHT22;761;50.074;8.228;2022-10-28T12:31:00;20.60;1.00
1536;DHT22;761;50.074;8.228;2022-10-28T12:33:36;20.60;1.00
1536;DHT22;761;50.074;8.228;2022-10-28T12:36:17;20.70;1.00
1536;DHT22;761;50.074;8.228;2022-10-28T12:38:53;20.80;1.00
1536;DHT22;761;50.074;8.228;2022-10-28T12:41:26;20.90;1.00
1536;DHT22;761;50.074;8.228;2022-10-28T12:44:03;20.90;1.00
1536;DHT22;761;50.074;8.228;2022-10-28T12:46:47;20.90;1.00
1536;DHT22;761;50.074;8.228;2022-10-28T12:49:25;20.90;1.00
1536;DHT22;761;50.074;8.228;2022-10-28T12:52:12;20.90;1.00
1536;DHT22;761;50.074;8.228;2022-10-28T12:54:56;20.90;1.00
1536;DHT22;761;50.074;8.228;2022-10-28T12:57:28;20.70;1.00
1536;DHT22;761;50.074;8.228;2022-10-28T13:00:03;20.40;1.00
1536;DHT22;761;50.074;8.228;2022-10-28T13:02:38;20.40;1.00
1536;DHT22;761;50.074;8.228;2022-10-28T13:05:18;20.50;1.00
1536;DHT22;761;50.074;8.228;2022-10-28T13:08:04;20.50;1.00
1536;DHT22;761;50.074;8.228;2022-10-28T13:10:38;20.70;1.00
1536;DHT22;761;50.074;8.228;2022-10-28T13:13:23;20.70;1.00
1536;DHT22;761;50.074;8.228;2022-10-28T13:16:12;20.80;1.00
1536;DHT22;761;50.074;8.228;2022-10-28T13:19:08;20.90;1.00
1536;DHT22;761;50.074;8.228;2022-10-28T13:22:01;21.20;1.00
1536;DHT22;761;50.074;8.228;2022-10-28T13:24:41;21.30;1.00
1536;DHT22;761;50.074;8.228;2022-10-28T13:27:16;21.40;1.00
1536;DHT22;761;50.074;8.228;2022-10-28T13:29:50;21.40;1.00
1536;DHT22;761;50.074;8.228;2022-10-28T13:32:32;21.30;1.00
1536;DHT22;761;50.074;8.228;2022-10-28T13:35:18;21.20;1.00
1536;DHT22;761;50.074;8.228;2022-10-28T13:37:50;21.00;1.00
1536;DHT22;761;50.074;8.228;2022-10-28T13:40:22;20.80;1.00
1536;DHT22;761;50.074;8.228;2022-10-28T13:43:17;20.90;1.00
1536;DHT22;761;50.074;8.228;2022-10-28T13:45:49;20.90;1.00
1536;DHT22;761;50.074;8.228;2022-10-28T13:51:46;21.20;1.00
1536;DHT22;761;50.074;8.228;2022-10-28T13:54:25;21.10;1.00
1536;DHT22;761;50.074;8.228;2022-10-28T13:57:01;21.20;1.00
1536;DHT22;761;50.074;8.228;2022-10-28T13:59:46;21.00;1.00
1536;DHT22;761;50.074;8.228;2022-10-28T14:02:27;21.00;1.00
1536;DHT22;761;50.074;8.228;2022-10-28T14:05:04;20.90;1.00
1536;DHT22;761;50.074;8.228;2022-10-28T14:07:39;20.90;1.00
1536;DHT22;761;50.074;8.228;2022-10-28T14:10:22;20.80;1.00
1536;DHT22;761;50.074;8.228;2022-10-28T14:12:54;20.80;1.00
1536;DHT22;761;50.074;8.228;2022-10-28T14:15:29;20.80;1.00
1536;DHT22;761;50.074;8.228;2022-10-28T14:18:01;20.80;1.00
1536;DHT22;761;50.074;8.228;2022-10-28T14:20:55;20.60;1.00
1536;DHT22;761;50.074;8.228;2022-10-28T14:24:01;20.60;1.00
1536;DHT22;761;50.074;8.228;2022-10-28T14:29:41;20.60;1.00
1536;DHT22;761;50.074;8.228;2022-10-28T14:32:38;20.50;1.00
1536;DHT22;761;50.074;8.228;2022-10-28T14:35:20;20.50;1.00
1536;DHT22;761;50.074;8.228;2022-10-28T14:38:15;20.50;1.00
1536;DHT22;761;50.074;8.228;2022-10-28T14:40:49;20.40;1.00
1536;DHT22;761;50.074;8.228;2022-10-28T14:43:29;20.30;1.00
1536;DHT22;761;50.074;8.228;2022-10-28T14:46:13;20.30;1.00
1536;DHT22;761;50.074;8.228;2022-10-28T14:48:46;20.30;1.00
1536;DHT22;761;50.074;8.228;2022-10-28T14:51:18;20.20;1.00
1536;DHT22;761;50.074;8.228;2022-10-28T14:53:49;20.10;1.00
1536;DHT22;761;50.074;8.228;2022-10-28T14:56:24;20.20;1.00
1536;DHT22;761;50.074;8.228;2022-10-28T14:58:58;20.10;1.00
1536;DHT22;761;50.074;8.228;2022-10-28T15:01:27;20.10;1.00
1536;DHT22;761;50.074;8.228;2022-10-28T15:04:01;20.10;1.00
1536;DHT22;761;50.074;8.228;2022-10-28T15:06:33;20.10;1.00
1536;DHT22;761;50.074;8.228;2022-10-28T15:09:12;20.10;1.00
1536;DHT22;761;50.074;8.228;2022-10-28T15:11:45;19.90;1.00
1536;DHT22;761;50.074;8.228;2022-10-28T15:14:32;19.80;1.00
1536;DHT22;761;50.074;8.228;2022-10-28T15:17:11;19.70;1.00
1536;DHT22;761;50.074;8.228;2022-10-28T15:19:46;19.50;1.00
1536;DHT22;761;50.074;8.228;2022-10-28T15:22:20;19.40;1.00
1536;DHT22;761;50.074;8.228;2022-10-28T15:24:53;19.30;1.00
1536;DHT22;761;50.074;8.228;2022-10-28T15:27:28;19.20;1.00
1536;DHT22;761;50.074;8.228;2022-10-28T15:30:01;19.10;1.00
1536;DHT22;761;50.074;8.228;2022-10-28T15:32:35;19.10;1.00
1536;DHT22;761;50.074;8.228;2022-10-28T15:38:34;19.00;1.00
1536;DHT22;761;50.074;8.228;2022-10-28T15:41:40;18.70;1.00
1536;DHT22;761;50.074;8.228;2022-10-28T15:44:33;18.70;1.00
1536;DHT22;761;50.074;8.228;2022-10-28T15:47:20;18.60;1.00
1536;DHT22;761;50.074;8.228;2022-10-28T15:50:22;18.50;1.00
1536;DHT22;761;50.074;8.228;2022-10-28T15:53:20;18.40;1.00
1536;DHT22;761;50.074;8.228;2022-10-28T15:56:22;18.30;1.00
1536;DHT22;761;50.074;8.228;2022-10-28T15:59:05;18.10;1.00
1536;DHT22;761;50.074;8.228;2022-10-28T16:01:45;18.00;1.00
1536;DHT22;761;50.074;8.228;2022-10-28T16:04:42;18.00;1.00
1536;DHT22;761;50.074;8.228;2022-10-28T16:07:12;18.00;1.00
1536;DHT22;761;50.074;8.228;2022-10-28T16:09:46;17.90;1.00
1536;DHT22;761;50.074;8.228;2022-10-28T16:12:19;17.80;1.00
1536;DHT22;761;50.074;8.228;2022-10-28T16:14:54;17.80;1.00
1536;DHT22;761;50.074;8.228;2022-10-28T16:17:26;17.80;1.00
1536;DHT22;761;50.074;8.228;2022-10-28T16:19:57;17.70;1.00
1536;DHT22;761;50.074;8.228;2022-10-28T16:22:29;17.70;1.00
1536;DHT22;761;50.074;8.228;2022-10-28T16:24:57;17.70;1.00
1536;DHT22;761;50.074;8.228;2022-10-28T16:27:27;17.70;1.00
1536;DHT22;761;50.074;8.228;2022-10-28T16:29:57;17.80;1.00
1536;DHT22;761;50.074;8.228;2022-10-28T16:32:35;17.70;1.00
1536;DHT22;761;50.074;8.228;2022-10-28T16:35:12;17.70;1.00
1536;DHT22;761;50.074;8.228;2022-10-28T16:37:42;17.50;1.00
1536;DHT22;761;50.074;8.228;2022-10-28T16:40:16;17.50;1.00
1536;DHT22;761;50.074;8.228;2022-10-28T16:43:04;17.50;1.00
1536;DHT22;761;50.074;8.228;2022-10-28T16:45:34;17.50;1.00
1536;DHT22;761;50.074;8.228;2022-10-28T16:48:07;17.50;1.00
1536;DHT22;761;50.074;8.228;2022-10-28T16:50:38;17.30;1.00
1536;DHT22;761;50.074;8.228;2022-10-28T16:53:13;17.20;1.00
1536;DHT22;761;50.074;8.228;2022-10-28T16:58:11;16.90;1.00
1536;DHT22;761;50.074;8.228;2022-10-28T17:03:13;16.90;1.00
1536;DHT22;761;50.074;8.228;2022-10-28T17:05:42;17.00;1.00
1536;DHT22;761;50.074;8.228;2022-10-28T17:08:11;16.90;1.00
1536;DHT22;761;50.074;8.228;2022-10-28T17:10:40;16.90;1.00
1536;DHT22;761;50.074;8.228;2022-10-28T17:13:10;16.80;1.00
1536;DHT22;761;50.074;8.228;2022-10-28T17:15:39;16.70;1.00
1536;DHT22;761;50.074;8.228;2022-10-28T17:18:09;16.70;1.00
1536;DHT22;761;50.074;8.228;2022-10-28T17:20:39;16.70;1.00
1536;DHT22;761;50.074;8.228;2022-10-28T17:28:14;16.70;1.00
1536;DHT22;761;50.074;8.228;2022-10-28T17:35:47;16.60;1.00
1536;DHT22;761;50.074;8.228;2022-10-28T17:38:15;16.60;1.00
1536;DHT22;761;50.074;8.228;2022-10-28T17:40:52;16.70;1.00
1536;DHT22;761;50.074;8.228;2022-10-28T17:43:22;16.60;1.00
1536;DHT22;761;50.074;8.228;2022-10-28T17:51:18;16.50;1.00
1536;DHT22;761;50.074;8.228;2022-10-28T17:54:09;16.40;1.00
1536;DHT22;761;50.074;8.228;2022-10-28T18:07:06;16.30;1.00
1536;DHT22;761;50.074;8.228;2022-10-28T18:09:39;16.20;1.00
1536;DHT22;761;50.074;8.228;2022-10-28T18:24:48;16.00;1.00
1536;DHT22;761;50.074;8.228;2022-10-28T18:32:28;16.00;1.00
1536;DHT22;761;50.074;8.228;2022-10-28T18:34:59;16.00;1.00
1536;DHT22;761;50.074;8.228;2022-10-28T18:37:33;16.00;1.00
1536;DHT22;761;50.074;8.228;2022-10-28T18:40:08;15.90;1.00
1536;DHT22;761;50.074;8.228;2022-10-28T18:42:37;15.80;1.00
1536;DHT22;761;50.074;8.228;2022-10-28T18:45:07;15.80;1.00
1536;DHT22;761;50.074;8.228;2022-10-28T18:47:39;15.80;1.00
1536;DHT22;761;50.074;8.228;2022-10-28T18:50:08;15.80;1.00
1536;DHT22;761;50.074;8.228;2022-10-28T18:52:39;15.70;1.00
1536;DHT22;761;50.074;8.228;2022-10-28T18:55:08;15.70;1.00
1536;DHT22;761;50.074;8.228;2022-10-28T18:57:37;15.70;1.00
1536;DHT22;761;50.074;8.228;2022-10-28T19:00:08;15.50;1.00